Time;durP1;ratioP1;P1;durP2;ratioP2;P2;SDS_P1;SDS_P2;PMS_P1;PMS_P2;Temp;Humidity;BMP_temperature;BMP_pressure;BME280_temperature;BME280_humidity;BME280_pressure;Samples;Min_cycle;Max_cycle;Signal;HPM_P1;HPM_P2
2023/03/14 00:02:16;;;;;;;;;0.00;0.00;;;;;21.82;41.45;99006.16;5056631;28;46170;-73
2023/03/14 00:04:41;;;;;;;;;0.00;0.00;;;;;21.85;41.55;99013.66;5056325;28;45408;-73
2023/03/14 00:07:06;;;;;;;;;0.00;0.00;;;;;21.83;42.06;99013.06;5056838;28;45437;-73
2023/03/14 00:09:31;;;;;;;;;0.00;0.00;;;;;21.83;41.58;99021.00;5056919;28;45288;-73
2023/03/14 00:11:57;;;;;;;;;1.33;0.00;;;;;21.84;41.49;99014.69;5056387;28;45390;-74
2023/03/14 00:14:22;;;;;;;;;2.00;0.00;;;;;21.75;41.60;98997.50;5056644;28;45422;-74
2023/03/14 00:16:48;;;;;;;;;0.33;0.00;;;;;21.79;41.69;99011.91;5056777;28;45415;-73
2023/03/14 00:19:14;;;;;;;;;0.67;0.00;;;;;21.83;41.39;99010.41;5056159;28;45405;-74
2023/03/14 00:21:39;;;;;;;;;2.00;0.33;;;;;21.77;41.88;99006.03;5056492;28;45459;-73
2023/03/14 00:24:05;;;;;;;;;0.00;0.00;;;;;21.84;41.37;99009.38;5056325;28;45302;-73
2023/03/14 00:26:31;;;;;;;;;0.67;0.67;;;;;21.84;41.57;99009.38;5056586;28;45337;-73
2023/03/14 00:28:56;;;;;;;;;1.67;0.00;;;;;21.85;41.56;99012.84;5056531;28;45341;-73
2023/03/14 00:31:22;;;;;;;;;0.00;0.00;;;;;21.82;41.60;99011.47;5054862;28;47329;-73
2023/03/14 00:33:47;;;;;;;;;0.00;0.00;;;;;21.83;41.55;99002.47;5055998;28;45392;-73
2023/03/14 00:36:16;;;;;;;;;1.00;0.00;;;;;21.83;41.42;99005.13;5056246;28;45380;-74
2023/03/14 00:38:43;;;;;;;;;0.00;0.00;;;;;21.83;41.32;99009.63;5056363;28;45551;-73
2023/03/14 00:41:11;;;;;;;;;0.00;0.00;;;;;21.83;41.45;99007.75;5055957;28;45399;-73
2023/03/14 00:43:36;;;;;;;;;0.00;0.00;;;;;21.83;41.53;99009.63;5055204;28;45390;-73
2023/03/14 00:46:02;;;;;;;;;0.00;0.00;;;;;21.83;41.99;99018.34;5056253;28;45394;-74
2023/03/14 00:48:27;;;;;;;;;0.00;0.00;;;;;21.81;42.13;99022.25;5055515;28;45377;-73
2023/03/14 00:50:53;;;;;;;;;0.00;0.00;;;;;21.80;41.54;99032.06;5056062;28;45339;-73
2023/03/14 00:53:18;;;;;;;;;0.33;0.00;;;;;21.76;41.63;99025.56;5055960;28;46575;-73
2023/03/14 00:55:44;;;;;;;;;0.00;0.00;;;;;21.80;41.58;99031.25;5056174;28;45337;-73
2023/03/14 00:58:15;;;;;;;;;0.00;0.00;;;;;21.81;41.96;99043.44;5056052;28;45331;-74
2023/03/14 01:00:41;;;;;;;;;0.00;0.00;;;;;21.80;42.06;99031.25;5055601;28;45375;-73
2023/03/14 01:03:08;;;;;;;;;0.00;0.00;;;;;21.79;41.85;99033.06;5054250;28;45484;-74
2023/03/14 01:05:34;;;;;;;;;1.00;1.00;;;;;21.74;42.08;99028.47;5056063;28;45227;-73
2023/03/14 01:07:59;;;;;;;;;0.00;0.00;;;;;21.70;41.86;99021.97;5055916;28;45480;-73
2023/03/14 01:10:25;;;;;;;;;0.00;0.00;;;;;21.80;42.04;99031.25;5037571;28;46590;-73
2023/03/14 01:12:50;;;;;;;;;0.00;0.00;;;;;21.78;42.25;99035.97;5055712;28;45332;-74
2023/03/14 01:15:16;;;;;;;;;0.67;0.00;;;;;21.80;41.78;99034.69;5055784;28;45297;-73
2023/03/14 01:17:41;;;;;;;;;0.67;0.00;;;;;21.81;42.01;99031.00;5055593;28;45400;-73
2023/03/14 01:20:09;;;;;;;;;0.00;0.00;;;;;21.80;41.42;99029.41;5055084;28;45386;-73
2023/03/14 01:22:35;;;;;;;;;0.00;0.00;;;;;21.77;41.47;99032.50;5055595;28;45439;-73
2023/03/14 01:25:01;;;;;;;;;0.00;0.00;;;;;21.81;41.45;99033.66;5055650;28;45357;-73
2023/03/14 01:27:26;;;;;;;;;0.00;0.00;;;;;21.71;41.47;99020.94;5055604;28;45445;-73
2023/03/14 01:29:51;;;;;;;;;1.00;0.00;;;;;21.81;41.82;99043.44;5055553;28;46332;-73
2023/03/14 01:32:17;;;;;;;;;0.00;0.00;;;;;21.80;41.82;99039.19;5054942;28;45359;-73
2023/03/14 01:34:42;;;;;;;;;0.00;0.00;;;;;21.79;41.78;99037.56;5055643;28;45385;-73
2023/03/14 01:37:07;;;;;;;;;0.00;0.00;;;;;21.80;41.81;99039.19;5054816;28;45323;-73
2023/03/14 01:39:33;;;;;;;;;0.00;0.00;;;;;21.82;41.34;99039.75;5055338;28;45416;-74
2023/03/14 01:42:00;;;;;;;;;0.00;0.00;;;;;21.71;41.75;99031.53;5055407;28;45390;-73
2023/03/14 01:44:25;;;;;;;;;0.67;0.00;;;;;21.79;41.22;99037.56;5058409;28;45423;-73
2023/03/14 01:46:51;;;;;;;;;0.00;0.00;;;;;21.80;41.59;99039.19;5058986;28;45431;-73
2023/03/14 01:49:19;;;;;;;;;0.00;0.00;;;;;21.79;41.46;99032.25;5058589;28;46678;-73
2023/03/14 01:52:07;;;;;;;;;0.00;0.00;;;;;21.79;41.82;99032.25;5058923;28;45541;-73
2023/03/14 01:54:43;;;;;;;;;2.00;0.00;;;;;21.79;41.92;99038.38;5058909;28;45333;-73
2023/03/14 01:57:20;;;;;;;;;0.00;0.00;;;;;21.74;41.46;99036.41;5041068;28;45303;-73
2023/03/14 01:59:52;;;;;;;;;0.00;0.00;;;;;21.80;41.69;99037.34;5058341;28;45288;-74
2023/03/14 02:02:18;;;;;;;;;0.00;0.00;;;;;21.71;41.78;99015.66;5058743;28;45352;-73
2023/03/14 02:04:43;;;;;;;;;0.00;0.00;;;;;21.72;41.35;99027.06;5058787;28;45434;-73
2023/03/14 02:07:49;;;;;;;;;0.00;0.00;;;;;21.78;41.77;99036.75;5058265;28;45395;-73
2023/03/14 02:10:18;;;;;;;;;0.00;0.00;;;;;21.79;41.34;99042.84;4957083;28;47161;-73
2023/03/14 02:12:44;;;;;;;;;0.00;0.00;;;;;21.77;41.30;99035.16;4957041;28;45364;-73
2023/03/14 02:15:10;;;;;;;;;0.00;0.00;;;;;21.77;41.79;99045.72;4956934;28;45423;-73
2023/03/14 02:17:36;;;;;;;;;0.00;0.00;;;;;21.70;41.99;99023.84;4957104;28;45594;-73
2023/03/14 02:20:22;;;;;;;;;1.00;0.00;;;;;21.76;41.49;99038.81;4956977;28;46448;-73
2023/03/14 02:22:48;;;;;;;;;0.00;0.00;;;;;21.76;41.45;99038.81;4957082;28;45327;-73
2023/03/14 02:25:45;;;;;;;;;0.00;0.00;;;;;21.78;41.46;99049.19;4956829;28;45376;-73
2023/03/14 02:28:11;;;;;;;;;0.00;0.00;;;;;21.78;41.33;99049.19;4956730;28;45398;-73
2023/03/14 02:30:37;;;;;;;;;0.00;0.00;;;;;21.76;42.00;99046.75;4956672;28;45312;-73
2023/03/14 02:33:09;;;;;;;;;0.00;0.00;;;;;21.76;41.46;99046.75;4956935;28;45463;-73
2023/03/14 02:35:43;;;;;;;;;0.00;0.00;;;;;21.77;41.85;99048.38;4956920;28;45321;-73
2023/03/14 02:38:16;;;;;;;;;0.00;0.00;;;;;21.76;41.91;99051.22;4956700;28;45493;-72
2023/03/14 02:40:42;;;;;;;;;0.00;0.00;;;;;21.76;42.08;99052.03;4956537;28;47167;-73
2023/03/14 02:43:07;;;;;;;;;1.00;0.00;;;;;21.72;41.50;99046.41;4956371;28;45548;-73
2023/03/14 02:45:46;;;;;;;;;0.00;0.00;;;;;21.78;41.90;99046.53;4991489;28;45347;-73
2023/03/14 02:48:16;;;;;;;;;0.00;0.00;;;;;21.78;41.44;99049.97;5047774;28;45390;-73
2023/03/14 02:50:43;;;;;;;;;0.00;0.00;;;;;21.76;41.29;99054.69;5057853;28;46010;-73
2023/03/14 02:53:08;;;;;;;;;0.00;0.00;;;;;21.79;41.45;99054.25;5057904;28;45358;-73
2023/03/14 02:55:33;;;;;;;;;0.00;0.00;;;;;21.73;41.77;99058.59;5056334;28;45282;-73
2023/03/14 02:57:59;;;;;;;;;1.00;0.00;;;;;21.78;41.79;99068.50;5057531;28;45480;-73
2023/03/14 03:00:24;;;;;;;;;0.00;0.00;;;;;21.79;41.83;99074.63;5057595;28;46126;-73
2023/03/14 03:02:50;;;;;;;;;0.00;0.00;;;;;21.81;41.66;99077.84;5057843;28;45292;-73
2023/03/14 03:05:16;;;;;;;;;0.00;0.00;;;;;21.72;41.47;99064.13;5057847;28;45222;-73
2023/03/14 03:07:41;;;;;;;;;1.00;0.00;;;;;21.80;41.62;99081.53;5056980;28;45251;-73
2023/03/14 03:10:07;;;;;;;;;0.00;0.00;;;;;21.80;41.38;99092.94;5039473;28;48065;-73
2023/03/14 03:12:33;;;;;;;;;0.00;0.00;;;;;21.80;41.77;99094.78;5057023;28;45381;-73
2023/03/14 03:14:58;;;;;;;;;0.00;0.00;;;;;21.79;41.79;99115.13;5057685;28;45318;-73
2023/03/14 03:17:23;;;;;;;;;0.00;0.00;;;;;21.79;41.84;99101.91;5057649;28;45368;-73
2023/03/14 03:19:48;;;;;;;;;0.00;0.00;;;;;21.78;41.67;99113.50;5057237;28;47038;-73
2023/03/14 03:22:14;;;;;;;;;0.00;0.00;;;;;21.70;41.95;99097.94;5057290;28;45337;-73
2023/03/14 03:24:39;;;;;;;;;0.00;0.00;;;;;21.76;41.86;99118.22;5057491;28;45365;-73
2023/03/14 03:27:04;;;;;;;;;0.00;0.00;;;;;21.73;41.29;99134.53;5057187;28;45332;-73
2023/03/14 03:29:30;;;;;;;;;0.00;0.00;;;;;21.73;41.57;99145.13;5039280;28;46298;-73
2023/03/14 03:31:55;;;;;;;;;0.00;0.00;;;;;21.76;41.62;99173.00;5038954;28;45400;-73
2023/03/14 03:34:21;;;;;;;;;0.00;0.00;;;;;21.76;41.79;99178.28;5057507;28;45392;-73
2023/03/14 03:36:46;;;;;;;;;0.00;0.00;;;;;21.73;41.85;99180.34;5057163;28;45375;-73
2023/03/14 03:39:12;;;;;;;;;0.00;0.00;;;;;21.74;41.50;99194.41;5057028;28;46060;-72
2023/03/14 03:41:37;;;;;;;;;0.00;0.00;;;;;21.73;41.48;99217.41;5056726;28;45482;-73
2023/03/14 03:44:03;;;;;;;;;0.00;0.00;;;;;21.68;41.90;99222.53;5057347;28;45413;-73
2023/03/14 03:46:28;;;;;;;;;0.00;0.00;;;;;21.73;41.50;99238.59;5056737;28;45577;-73
2023/03/14 03:48:58;;;;;;;;;0.00;0.00;;;;;21.64;41.86;99234.59;5056841;28;46224;-73
2023/03/14 03:51:24;;;;;;;;;0.00;0.00;;;;;21.66;41.33;99243.13;5056817;28;45368;-73
2023/03/14 03:53:49;;;;;;;;;1.00;0.00;;;;;21.72;41.91;99258.16;5056967;28;45389;-73
2023/03/14 03:56:15;;;;;;;;;1.00;0.00;;;;;21.72;41.55;99274.03;5056468;28;45309;-73
2023/03/14 03:58:41;;;;;;;;;0.00;0.00;;;;;21.72;42.00;99276.69;5056737;28;46270;-73
2023/03/14 04:01:08;;;;;;;;;0.00;0.00;;;;;21.73;41.89;99301.31;5056533;28;45246;-73
2023/03/14 04:03:34;;;;;;;;;0.00;0.00;;;;;21.72;41.60;99295.22;5056928;28;45369;-73
2023/03/14 04:06:08;;;;;;;;;0.00;0.00;;;;;21.71;41.82;99296.25;5056547;28;45307;-73
2023/03/14 04:08:34;;;;;;;;;0.00;0.00;;;;;21.70;41.43;99309.69;5056516;28;46385;-73
2023/03/14 04:11:00;;;;;;;;;0.00;0.00;;;;;21.67;41.44;99315.41;5056045;28;45385;-73
2023/03/14 04:13:27;;;;;;;;;0.00;0.00;;;;;21.71;41.58;99328.00;5056851;28;45285;-73
2023/03/14 04:15:53;;;;;;;;;0.00;0.00;;;;;21.73;41.53;99352.41;5056591;28;45423;-73
2023/03/14 04:18:19;;;;;;;;;0.00;0.00;;;;;21.73;41.65;99360.34;5056388;28;46969;-73
2023/03/14 04:20:45;;;;;;;;;0.00;0.00;;;;;21.74;41.99;99377.88;5056314;28;45339;-73
2023/03/14 04:23:10;;;;;;;;;0.00;0.00;;;;;21.75;41.76;99389.28;5056611;28;45438;-73
2023/03/14 04:25:35;;;;;;;;;0.00;0.00;;;;;21.74;41.39;99385.00;5056281;28;45477;-73
2023/03/14 04:28:01;;;;;;;;;0.00;0.00;;;;;21.76;41.65;99405.94;5056380;28;45424;-73
2023/03/14 04:30:27;;;;;;;;;0.00;0.00;;;;;21.75;41.30;99413.09;5056277;28;45444;-73
2023/03/14 04:32:52;;;;;;;;;0.00;0.00;;;;;21.76;41.28;99435.88;5056589;28;45352;-73
2023/03/14 04:35:17;;;;;;;;;0.00;0.00;;;;;21.77;41.75;99445.47;5056070;28;45462;-73
2023/03/14 04:37:43;;;;;;;;;0.00;0.00;;;;;21.78;41.08;99454.22;5055710;28;45235;-73
2023/03/14 04:40:09;;;;;;;;;0.00;0.00;;;;;21.77;41.10;99460.53;5055714;28;45316;-73
2023/03/14 04:42:35;;;;;;;;;0.00;0.00;;;;;21.67;41.11;99450.41;5056201;28;45257;-73
2023/03/14 04:45:00;;;;;;;;;0.00;0.00;;;;;21.77;41.05;99469.28;5056221;28;45443;-73
2023/03/14 04:47:26;;;;;;;;;0.00;0.00;;;;;21.77;41.60;99484.34;5055882;28;46180;-73
2023/03/14 04:49:51;;;;;;;;;0.00;0.00;;;;;21.77;41.21;99506.34;5056229;28;45254;-73
2023/03/14 04:52:17;;;;;;;;;0.00;0.00;;;;;21.76;41.36;99503.91;5056248;28;45270;-73
2023/03/14 04:54:42;;;;;;;;;0.00;0.00;;;;;21.70;41.58;99497.63;5055750;28;45512;-73
2023/03/14 04:57:08;;;;;;;;;0.00;0.00;;;;;21.74;41.57;99526.13;5055847;28;46063;-73
2023/03/14 04:59:33;;;;;;;;;0.00;0.00;;;;;21.73;41.35;99532.44;5055935;28;45598;-73
2023/03/14 05:01:58;;;;;;;;;0.00;0.00;;;;;21.72;41.46;99544.06;5055901;28;45418;-73
2023/03/14 05:04:24;;;;;;;;;0.00;0.00;;;;;21.72;41.39;99535.28;5055607;28;45311;-73
2023/03/14 05:06:49;;;;;;;;;0.00;0.00;;;;;21.65;41.23;99545.88;5055810;28;45932;-73
2023/03/14 05:09:15;;;;;;;;;1.00;0.00;;;;;21.71;41.06;99554.84;5055342;28;45439;-73
2023/03/14 05:11:40;;;;;;;;;0.00;0.00;;;;;21.70;41.57;99577.84;5056015;28;45395;-73
2023/03/14 05:14:06;;;;;;;;;0.00;0.00;;;;;21.70;41.18;99587.66;5055762;28;45388;-73
2023/03/14 05:16:31;;;;;;;;;0.00;0.00;;;;;21.70;41.59;99596.38;5055775;28;46210;-73
2023/03/14 05:18:56;;;;;;;;;0.00;0.00;;;;;21.70;41.23;99608.81;5058466;28;45434;-73
2023/03/14 05:21:22;;;;;;;;;0.00;0.00;;;;;21.70;40.98;99630.78;5058752;28;45383;-73
2023/03/14 05:23:47;;;;;;;;;0.00;0.00;;;;;21.69;41.06;99629.19;5059010;28;45347;-73
2023/03/14 05:26:12;;;;;;;;;0.00;0.00;;;;;21.68;41.47;99622.25;5059030;28;45431;-73
2023/03/14 05:28:38;;;;;;;;;0.00;0.00;;;;;21.69;41.25;99641.59;5059219;28;45292;-73
2023/03/14 05:31:07;;;;;;;;;0.00;0.00;;;;;21.68;41.35;99648.72;5059160;28;45468;-73
2023/03/14 05:33:32;;;;;;;;;1.00;0.00;;;;;21.68;41.45;99669.06;5059237;28;45294;-73
2023/03/14 05:35:57;;;;;;;;;0.00;0.00;;;;;21.55;41.35;99648.72;5058752;28;46199;-73
2023/03/14 05:38:23;;;;;;;;;0.00;0.00;;;;;21.62;41.22;99665.44;5058778;28;45431;-73
2023/03/14 05:40:48;;;;;;;;;1.00;0.00;;;;;21.67;40.99;99680.69;5059085;28;45311;-73
2023/03/14 05:43:14;;;;;;;;;4.00;0.00;;;;;21.64;41.15;99689.88;5058994;28;45392;-73
2023/03/14 05:45:41;;;;;;;;;0.00;0.00;;;;;21.67;41.35;99686.81;5059000;28;46061;-73
2023/03/14 05:48:06;;;;;;;;;0.00;0.00;;;;;21.69;41.20;99699.84;5058612;28;45350;-73
2023/03/14 05:50:32;;;;;;;;;0.67;0.00;;;;;21.70;40.76;99712.06;5058772;28;45338;-73
2023/03/14 05:52:57;;;;;;;;;0.00;0.00;;;;;21.71;41.09;99721.63;5057780;28;45308;-73
2023/03/14 05:55:22;;;;;;;;;0.00;0.00;;;;;21.69;40.66;99729.78;5058787;28;45307;-73
2023/03/14 05:57:48;;;;;;;;;1.00;0.00;;;;;21.72;40.74;99745.25;5058808;28;45356;-73
2023/03/14 06:00:13;;;;;;;;;0.00;0.00;;;;;21.70;41.19;99747.25;5058658;28;45373;-73
2023/03/14 06:02:39;;;;;;;;;0.33;0.00;;;;;21.73;40.55;99753.97;5058833;28;45226;-73
2023/03/14 06:05:04;;;;;;;;;0.00;0.00;;;;;21.73;40.97;99777.81;5058569;28;46103;-73
2023/03/14 06:07:30;;;;;;;;;0.67;0.00;;;;;21.73;40.72;99775.16;5058173;28;45305;-73
2023/03/14 06:09:55;;;;;;;;;0.00;0.00;;;;;21.72;40.59;99781.50;5058650;28;45307;-73
2023/03/14 06:12:20;;;;;;;;;0.67;0.00;;;;;21.72;40.51;99782.31;5058728;28;45151;-73
2023/03/14 06:14:46;;;;;;;;;0.00;0.00;;;;;21.61;40.46;99772.31;5058309;28;46268;-73
2023/03/14 06:17:11;;;;;;;;;0.33;0.33;;;;;21.70;40.95;99802.06;5058386;28;45385;-73
2023/03/14 06:19:36;;;;;;;;;0.00;0.00;;;;;21.71;40.44;99808.97;5058361;28;45273;-73
2023/03/14 06:22:01;;;;;;;;;0.00;0.00;;;;;21.70;40.82;99821.38;5058039;28;45297;-73
2023/03/14 06:24:27;;;;;;;;;1.00;0.00;;;;;21.68;40.93;99819.97;5058262;28;45167;-73
2023/03/14 06:26:52;;;;;;;;;4.00;0.00;;;;;21.69;40.90;99826.91;5058269;28;45230;-73
2023/03/14 06:29:19;;;;;;;;;1.00;0.00;;;;;21.69;40.76;99832.19;5058424;28;45664;-73
2023/03/14 06:31:44;;;;;;;;;0.00;0.00;;;;;21.68;40.36;99841.13;5058133;28;45357;-73
2023/03/14 06:34:09;;;;;;;;;0.00;0.00;;;;;21.68;40.34;99849.91;5057833;28;45349;-73
2023/03/14 06:36:35;;;;;;;;;0.00;0.00;;;;;21.67;40.36;99850.94;5057473;28;45394;-74
2023/03/14 06:39:00;;;;;;;;;0.00;0.00;;;;;21.58;40.52;99838.91;5058076;28;45453;-74
2023/03/14 06:41:26;;;;;;;;;0.33;0.33;;;;;21.66;40.80;99857.25;5057884;28;45525;-73
2023/03/14 06:43:52;;;;;;;;;0.00;0.00;;;;;21.66;40.28;99867.81;5057738;28;47040;-73
2023/03/14 06:46:17;;;;;;;;;0.00;0.00;;;;;21.66;40.78;99867.81;5057944;28;45459;-73
2023/03/14 06:48:43;;;;;;;;;0.00;0.00;;;;;21.60;40.87;99873.91;5057993;28;45311;-73
2023/03/14 06:51:08;;;;;;;;;0.00;0.00;;;;;21.66;40.15;99882.88;5057640;28;45521;-73
2023/03/14 06:53:34;;;;;;;;;0.00;0.00;;;;;21.65;40.78;99881.28;5057405;28;45357;-73
2023/03/14 06:55:59;;;;;;;;;0.00;0.00;;;;;21.63;40.62;99876.97;5057196;28;45475;-73
2023/03/14 06:58:24;;;;;;;;;1.00;0.00;;;;;21.62;40.58;99891.22;5057881;28;45452;-73
2023/03/14 07:00:50;;;;;;;;;0.00;0.00;;;;;21.64;40.66;99893.69;5057802;28;45380;-73
2023/03/14 07:03:15;;;;;;;;;0.00;0.00;;;;;21.50;40.22;99888.38;5057417;28;45936;-75
2023/03/14 07:05:41;;;;;;;;;0.00;0.00;;;;;21.63;40.02;99907.94;5057311;28;45395;-74
2023/03/14 07:08:07;;;;;;;;;0.00;0.00;;;;;21.62;40.14;99919.56;5057666;28;45396;-74
2023/03/14 07:10:33;;;;;;;;;0.00;0.00;;;;;21.64;40.48;99925.47;5057192;28;45436;-75
2023/03/14 07:12:59;;;;;;;;;0.00;0.00;;;;;21.65;40.24;99932.38;5057314;28;47300;-75
2023/03/14 07:15:24;;;;;;;;;1.67;0.00;;;;;21.67;40.59;99938.31;5057251;28;46408;-74
2023/03/14 07:17:49;;;;;;;;;1.00;0.00;;;;;21.68;40.81;99945.22;5057748;28;45354;-74
2023/03/14 07:20:15;;;;;;;;;0.00;0.00;;;;;21.72;40.90;99946.47;5057105;28;45394;-74
2023/03/14 07:22:41;;;;;;;;;0.67;0.00;;;;;21.78;40.36;99946.69;5056984;28;46307;-74
2023/03/14 07:25:06;;;;;;;;;0.67;0.00;;;;;21.83;40.89;99954.81;5056930;28;45372;-73
2023/03/14 07:27:32;;;;;;;;;0.00;0.00;;;;;21.85;40.43;99969.50;5047877;28;45337;-75
2023/03/14 07:29:57;;;;;;;;;0.00;0.00;;;;;21.86;40.73;99970.28;5052523;28;45277;-73
2023/03/14 07:32:22;;;;;;;;;0.00;0.00;;;;;21.88;40.21;99975.44;5056421;28;45365;-74
2023/03/14 07:34:48;;;;;;;;;0.00;0.00;;;;;21.88;40.37;99981.56;5043139;28;45474;-75
2023/03/14 07:37:14;;;;;;;;;0.00;0.00;;;;;21.89;40.55;99995.59;5054344;28;45510;-74
2023/03/14 07:39:39;;;;;;;;;0.00;0.00;;;;;21.89;40.31;99996.41;5055081;28;45592;-73
2023/03/14 07:42:04;;;;;;;;;0.00;0.00;;;;;21.90;40.17;100005.19;5047568;28;47048;-74
2023/03/14 07:44:30;;;;;;;;;0.33;0.33;;;;;21.87;40.65;100003.75;5050419;28;45293;-74
2023/03/14 07:46:55;;;;;;;;;0.00;0.00;;;;;21.88;40.55;100029.22;5050966;28;45423;-74
2023/03/14 07:49:20;;;;;;;;;0.00;0.00;;;;;21.88;40.61;100058.34;5050653;28;45459;-75
2023/03/14 07:51:49;;;;;;;;;0.00;0.00;;;;;21.88;40.60;100071.59;5051102;28;45305;-75
2023/03/14 07:54:14;;;;;;;;;0.00;0.00;;;;;21.87;40.52;100062.00;5049957;28;46092;-74
2023/03/14 07:56:40;;;;;;;;;0.00;0.00;;;;;21.87;40.48;100053.22;5050957;28;45859;-74
2023/03/14 07:59:06;;;;;;;;;1.67;1.00;;;;;21.83;40.51;100053.59;5051249;28;45536;-75
2023/03/14 08:01:32;;;;;;;;;0.00;0.00;;;;;21.82;40.60;100067.88;5050117;28;46562;-74
2023/03/14 08:03:57;;;;;;;;;0.00;0.00;;;;;21.86;40.63;100078.88;5050057;28;45902;-74
2023/03/14 08:06:22;;;;;;;;;0.00;0.00;;;;;21.86;40.55;100100.06;5051305;28;45807;-73
2023/03/14 08:08:48;;;;;;;;;0.00;0.00;;;;;21.84;40.06;100102.09;5051505;28;45459;-74
2023/03/14 08:11:13;;;;;;;;;1.00;0.00;;;;;21.85;40.39;100109.84;5051868;28;46165;-74
2023/03/14 08:13:39;;;;;;;;;0.00;0.00;;;;;21.83;40.57;100106.56;5050608;28;45772;-75
2023/03/14 08:16:05;;;;;;;;;0.00;0.00;;;;;21.82;40.25;100110.25;5049568;28;45645;-74
2023/03/14 08:18:30;;;;;;;;;0.00;0.00;;;;;21.79;40.16;100117.75;5049654;28;45750;-74
2023/03/14 08:20:56;;;;;;;;;0.00;0.00;;;;;21.83;40.05;100134.91;5051016;28;46035;-74
2023/03/14 08:23:21;;;;;;;;;1.00;0.00;;;;;21.82;40.51;100134.06;5050788;28;45529;-74
2023/03/14 08:25:51;;;;;;;;;0.00;0.00;;;;;21.82;40.51;100133.25;5051265;28;45511;-74
2023/03/14 08:28:17;;;;;;;;;0.00;0.00;;;;;21.82;40.16;100133.25;5051493;28;45626;-74
2023/03/14 08:30:42;;;;;;;;;0.00;0.00;;;;;21.83;39.90;100140.19;5050665;28;46209;-75
2023/03/14 08:33:07;;;;;;;;;0.00;0.00;;;;;21.83;40.03;100143.63;5050848;28;45568;-74
2023/03/14 08:35:33;;;;;;;;;0.33;0.33;;;;;21.74;40.04;100121.00;5051129;28;45515;-75
2023/03/14 08:37:58;;;;;;;;;0.00;0.00;;;;;21.85;40.07;100149.56;5050643;28;45582;-74
2023/03/14 08:40:24;;;;;;;;;1.00;1.00;;;;;21.88;39.90;100163.47;5050076;28;46343;-74
2023/03/14 08:42:49;;;;;;;;;0.00;0.00;;;;;21.90;40.22;100170.19;5050251;28;45442;-74
2023/03/14 08:45:16;;;;;;;;;1.67;0.00;;;;;21.96;39.73;100176.56;5050835;28;45695;-74
2023/03/14 08:47:42;;;;;;;;;0.00;0.00;;;;;21.98;39.71;100179.81;5049330;28;45495;-74
2023/03/14 08:50:09;;;;;;;;;0.00;0.00;;;;;21.91;39.66;100160.44;5050188;28;45669;-74
2023/03/14 08:52:34;;;;;;;;;1.00;0.00;;;;;22.01;39.66;100189.19;5049275;28;46066;-74
2023/03/14 08:54:59;;;;;;;;;0.00;0.00;;;;;22.06;39.72;100194.72;5050400;28;46563;-74
2023/03/14 08:57:27;;;;;;;;;1.00;0.00;;;;;22.11;39.62;100204.72;5050356;28;45422;-74
2023/03/14 08:59:56;;;;;;;;;0.00;0.00;;;;;22.15;39.80;100198.84;5050107;28;47280;-75
2023/03/14 09:02:23;;;;;;;;;4.00;0.00;;;;;22.20;39.72;100197.44;5049246;28;45373;-75
2023/03/14 09:04:52;;;;;;;;;0.00;0.00;;;;;22.23;39.50;100208.44;5050013;28;45544;-74
2023/03/14 09:07:18;;;;;;;;;1.00;0.00;;;;;22.23;39.26;100212.94;5050352;28;45528;-75
2023/03/14 09:09:44;;;;;;;;;0.00;0.00;;;;;22.21;39.49;100191.94;5050839;28;45373;-74
2023/03/14 09:12:09;;;;;;;;;0.00;0.00;;;;;22.31;39.65;100218.06;5050791;28;45549;-74
2023/03/14 09:14:36;;;;;;;;;0.00;0.00;;;;;22.33;39.11;100229.28;5050201;28;45538;-74
2023/03/14 09:17:02;;;;;;;;;0.00;0.00;;;;;22.34;39.51;100224.81;5050284;28;45506;-74
2023/03/14 09:19:27;;;;;;;;;0.00;0.00;;;;;22.39;39.63;100241.75;5050041;28;46502;-75
2023/03/14 09:21:54;;;;;;;;;0.00;0.00;;;;;22.42;39.58;100250.31;5049926;28;45677;-73
2023/03/14 09:24:19;;;;;;;;;0.00;0.00;;;;;22.40;39.42;100251.31;5049873;28;45874;-74
2023/03/14 09:26:45;;;;;;;;;1.00;0.00;;;;;22.44;39.52;100264.19;5049846;28;45686;-75
2023/03/14 09:29:10;;;;;;;;;0.00;0.00;;;;;22.44;39.26;100257.06;5049060;28;47164;-73
2023/03/14 09:31:35;;;;;;;;;1.00;0.00;;;;;22.44;39.00;100270.31;5049492;28;45477;-74
2023/03/14 09:34:01;;;;;;;;;0.00;0.00;;;;;22.36;39.20;100234.19;5049103;28;45700;-73
2023/03/14 09:36:27;;;;;;;;;0.00;0.00;;;;;22.49;38.74;100269.72;5049870;28;45921;-74
2023/03/14 09:38:52;;;;;;;;;0.00;0.00;;;;;22.50;39.35;100266.06;5049638;28;46298;-74
2023/03/14 09:41:24;;;;;;;;;1.00;0.00;;;;;22.52;39.16;100285.22;5049064;28;45542;-74
2023/03/14 09:44:01;;;;;;;;;0.00;0.00;;;;;22.55;38.82;100290.16;5046773;28;45601;-74
2023/03/14 09:46:27;;;;;;;;;0.00;0.00;;;;;22.55;38.57;100286.66;5050015;28;45588;-73
2023/03/14 09:48:52;;;;;;;;;0.00;0.00;;;;;22.55;38.72;100303.41;5049243;28;47236;-74
2023/03/14 09:51:21;;;;;;;;;0.00;0.00;;;;;22.55;38.52;100305.22;5048847;28;45531;-75
2023/03/14 09:53:48;;;;;;;;;0.00;0.00;;;;;22.55;38.65;100307.88;5050257;28;45520;-74
2023/03/14 09:56:27;;;;;;;;;0.00;0.00;;;;;22.54;39.06;100291.16;5050143;28;45545;-75
2023/03/14 09:58:56;;;;;;;;;0.00;0.00;;;;;22.52;39.03;100306.44;5046906;28;46208;-74
2023/03/14 10:01:31;;;;;;;;;1.00;0.00;;;;;22.51;39.11;100316.22;5042876;28;45535;-74
2023/03/14 10:04:00;;;;;;;;;1.00;0.00;;;;;22.52;38.55;100330.31;5050868;28;45439;-74
2023/03/14 10:06:30;;;;;;;;;2.00;0.00;;;;;22.50;39.05;100313.78;5052693;28;45517;-74
2023/03/14 10:08:56;;;;;;;;;0.00;0.00;;;;;22.48;38.90;100326.41;5052343;28;46780;-75
2023/03/14 10:11:23;;;;;;;;;0.00;0.00;;;;;22.55;38.46;100329.09;5052296;28;45468;-75
2023/03/14 10:14:05;;;;;;;;;0.00;0.00;;;;;22.56;38.29;100339.50;5053077;28;45660;-75
2023/03/14 10:16:36;;;;;;;;;0.00;0.00;;;;;22.56;38.76;100336.03;5052816;28;45411;-75
2023/03/14 10:19:13;;;;;;;;;0.33;0.33;;;;;22.55;38.18;100345.81;5052136;28;45743;-75
2023/03/14 10:21:42;;;;;;;;;0.00;0.00;;;;;22.55;38.88;100360.91;5052579;28;45608;-73
2023/03/14 10:24:24;;;;;;;;;0.00;0.00;;;;;22.54;38.70;100354.78;5052629;28;45522;-74
2023/03/14 10:26:53;;;;;;;;;0.67;0.00;;;;;22.54;38.38;100372.50;5052466;28;46018;-74
2023/03/14 10:29:19;;;;;;;;;0.00;0.00;;;;;22.52;38.63;100360.28;5052175;28;46208;-74
2023/03/14 10:32:07;;;;;;;;;1.00;0.00;;;;;22.53;38.10;100377.03;5053150;28;45589;-74
2023/03/14 10:34:38;;;;;;;;;0.00;0.00;;;;;22.54;38.74;100369.84;5053254;28;45426;-73
2023/03/14 10:37:25;;;;;;;;;0.33;0.00;;;;;22.55;38.31;100368.84;5052709;28;45440;-73
2023/03/14 10:39:53;;;;;;;;;1.67;0.00;;;;;22.55;38.15;100367.03;5051749;28;46349;-74
2023/03/14 10:42:29;;;;;;;;;0.00;0.00;;;;;22.55;38.61;100376.81;5043958;28;45978;-74
2023/03/14 10:44:59;;;;;;;;;0.00;0.00;;;;;22.53;37.99;100382.31;5052478;28;45568;-73
2023/03/14 10:47:27;;;;;;;;;0.00;0.00;;;;;22.52;38.42;100381.50;5050625;28;45822;-74
2023/03/14 10:49:53;;;;;;;;;1.00;0.00;;;;;22.49;38.39;100384.53;5052107;28;46264;-74
2023/03/14 10:52:26;;;;;;;;;0.00;0.00;;;;;22.51;38.61;100377.19;5052988;28;45509;-74
2023/03/14 10:55:01;;;;;;;;;0.00;0.00;;;;;22.52;38.51;100393.94;5052579;28;45352;-74
2023/03/14 10:57:27;;;;;;;;;1.00;0.00;;;;;22.51;38.31;100392.28;5052094;28;45999;-73
2023/03/14 10:59:56;;;;;;;;;0.33;0.33;;;;;22.50;38.47;100398.59;5051891;28;47143;-73
2023/03/14 11:02:47;;;;;;;;;0.00;0.00;;;;;22.50;38.47;100401.25;5052654;28;45469;-74
2023/03/14 11:05:15;;;;;;;;;0.00;0.00;;;;;22.49;38.08;100402.25;5052386;28;45688;-73
2023/03/14 11:07:44;;;;;;;;;0.00;0.00;;;;;22.48;38.02;100414.69;5053062;28;45346;-74
2023/03/14 11:10:15;;;;;;;;;0.33;0.33;;;;;22.48;38.45;100437.75;5051583;28;46344;-73
2023/03/14 11:13:08;;;;;;;;;0.00;0.00;;;;;22.46;38.42;100451.19;5052445;28;45531;-74
2023/03/14 11:15:39;;;;;;;;;0.00;0.00;;;;;22.44;37.75;100490.31;5051412;28;45533;-73
2023/03/14 11:18:08;;;;;;;;;0.00;0.00;;;;;22.43;38.01;100507.22;5051884;28;45650;-73
2023/03/14 11:20:46;;;;;;;;;3.00;0.00;;;;;22.41;38.06;100525.16;5051618;28;46942;-74
2023/03/14 11:23:22;;;;;;;;;5.00;0.00;;;;;22.40;38.35;100531.50;5052047;28;45512;-74
2023/03/14 11:25:53;;;;;;;;;1.67;0.00;;;;;22.39;38.12;100543.09;5047795;28;45765;-73
2023/03/14 11:28:29;;;;;;;;;0.00;0.00;;;;;22.37;38.03;100545.94;5052097;28;45498;-74
2023/03/14 11:31:09;;;;;;;;;1.00;0.00;;;;;22.30;38.52;100547.72;5051607;28;46112;-74
2023/03/14 11:33:45;;;;;;;;;1.00;0.00;;;;;22.36;37.98;100557.53;5051914;28;45983;-74